TimeMST,TemperatureF,Dew PointF,Humidity,Sea Level PressureIn,VisibilityMPH,Wind Direction,Wind SpeedMPH,Gust SpeedMPH,PrecipitationIn,Events,Conditions,WindDirDegrees,DateUTC
12:53 AM,-0.0,-2.9,88,30.15,10.0,Calm,Calm,-,N/A,,Clear,0,2012-11-11 07:53:00
1:53 AM,-2.0,-5.1,87,30.16,10.0,Calm,Calm,-,N/A,,Clear,0,2012-11-11 08:53:00
2:53 AM,-2.0,-5.1,87,30.16,10.0,Calm,Calm,-,N/A,,Clear,0,2012-11-11 09:53:00
3:53 AM,-0.0,-4.0,83,30.15,10.0,Calm,Calm,-,N/A,,Scattered Clouds,0,2012-11-11 10:53:00
4:53 AM,-0.9,-4.0,87,30.17,10.0,South,4.6,-,N/A,,Partly Cloudy,180,2012-11-11 11:53:00
5:53 AM,1.0,-2.0,87,30.18,10.0,South,4.6,-,N/A,,Overcast,190,2012-11-11 12:53:00
6:53 AM,8.6,5.0,85,29.94,10.0,SW,4.6,-,N/A,,Overcast,230,2012-11-11 13:53:00
7:53 AM,10.0,6.1,84,30.17,10.0,Calm,Calm,-,N/A,,Overcast,0,2012-11-11 14:53:00
8:53 AM,16.0,9.0,74,30.17,10.0,WNW,5.8,-,N/A,,Overcast,300,2012-11-11 15:53:00
9:53 AM,18.0,10.0,71,30.18,10.0,NW,5.8,-,N/A,,Overcast,310,2012-11-11 16:53:00
10:53 AM,19.0,10.9,71,30.21,10.0,North,4.6,-,N/A,,Overcast,350,2012-11-11 17:53:00
11:53 AM,21.9,12.9,68,30.20,10.0,NNW,26.5,32.2,N/A,,Overcast,330,2012-11-11 18:53:00
12:53 PM,21.9,10.9,63,30.21,10.0,NNW,20.7,-,N/A,,Scattered Clouds,340,2012-11-11 19:53:00
1:53 PM,23.0,12.0,63,30.21,10.0,NNW,24.2,33.4,N/A,,Partly Cloudy,340,2012-11-11 20:53:00
2:53 PM,23.0,12.0,63,30.22,10.0,NNW,21.9,-,N/A,,Partly Cloudy,330,2012-11-11 21:53:00
3:53 PM,23.0,12.0,63,30.25,10.0,NNW,17.3,-,N/A,,Clear,340,2012-11-11 22:53:00
4:53 PM,21.0,10.0,63,30.25,10.0,NNW,13.8,-,N/A,,Clear,340,2012-11-11 23:53:00
5:53 PM,16.0,7.0,68,30.28,10.0,West,9.2,-,N/A,,Clear,270,2012-11-12 00:53:00
6:53 PM,19.9,7.0,57,30.26,10.0,WNW,10.4,-,N/A,,Clear,300,2012-11-12 01:53:00
7:53 PM,10.9,3.0,70,30.30,10.0,South,6.9,-,N/A,,Clear,180,2012-11-12 02:53:00
8:53 PM,9.0,3.0,77,30.30,10.0,South,5.8,-,N/A,,Clear,180,2012-11-12 03:53:00
9:53 PM,8.1,1.9,76,30.31,10.0,SSW,6.9,-,N/A,,Clear,200,2012-11-12 04:53:00
10:53 PM,6.1,-0.0,76,30.31,10.0,South,5.8,-,N/A,,Clear,190,2012-11-12 05:53:00
11:53 PM,9.0,-0.0,67,30.29,10.0,South,5.8,-,N/A,,Clear,190,2012-11-12 06:53:00